sensor_id;sensor_type;location;lat;lon;timestamp;P1;durP1;ratioP1;P2;durP2;ratioP2
27303;SDS011;14791;52.392;13.092;2023-06-22T00:01:31;6.45;;;6.10;;
27303;SDS011;14791;52.392;13.092;2023-06-22T00:04:00;6.10;;;5.90;;
27303;SDS011;14791;52.392;13.092;2023-06-22T00:06:29;5.80;;;5.50;;
27303;SDS011;14791;52.392;13.092;2023-06-22T00:08:58;6.37;;;6.17;;
27303;SDS011;14791;52.392;13.092;2023-06-22T00:11:27;5.50;;;5.40;;
27303;SDS011;14791;52.392;13.092;2023-06-22T00:13:56;6.10;;;5.90;;
27303;SDS011;14791;52.392;13.092;2023-06-22T00:16:25;6.35;;;6.15;;
27303;SDS011;14791;52.392;13.092;2023-06-22T00:18:53;6.17;;;5.97;;
27303;SDS011;14791;52.392;13.092;2023-06-22T00:21:22;5.90;;;5.70;;
27303;SDS011;14791;52.392;13.092;2023-06-22T00:23:51;6.35;;;6.15;;
27303;SDS011;14791;52.392;13.092;2023-06-22T00:26:20;6.60;;;6.40;;
27303;SDS011;14791;52.392;13.092;2023-06-22T00:28:49;6.50;;;6.30;;
27303;SDS011;14791;52.392;13.092;2023-06-22T00:31:18;6.30;;;6.10;;
27303;SDS011;14791;52.392;13.092;2023-06-22T00:33:47;6.20;;;6.00;;
27303;SDS011;14791;52.392;13.092;2023-06-22T00:36:17;6.08;;;5.87;;
27303;SDS011;14791;52.392;13.092;2023-06-22T00:38:46;6.00;;;5.80;;
27303;SDS011;14791;52.392;13.092;2023-06-22T00:41:17;6.08;;;5.72;;
27303;SDS011;14791;52.392;13.092;2023-06-22T00:43:46;5.50;;;5.20;;
27303;SDS011;14791;52.392;13.092;2023-06-22T00:46:15;6.22;;;6.00;;
27303;SDS011;14791;52.392;13.092;2023-06-22T00:48:44;6.08;;;5.87;;
27303;SDS011;14791;52.392;13.092;2023-06-22T00:51:13;6.33;;;6.12;;
27303;SDS011;14791;52.392;13.092;2023-06-22T00:53:42;6.15;;;5.95;;
27303;SDS011;14791;52.392;13.092;2023-06-22T00:56:11;6.92;;;6.58;;
27303;SDS011;14791;52.392;13.092;2023-06-22T00:58:41;5.90;;;5.70;;
27303;SDS011;14791;52.392;13.092;2023-06-22T01:01:10;5.85;;;5.72;;
27303;SDS011;14791;52.392;13.092;2023-06-22T01:03:40;6.00;;;5.80;;
27303;SDS011;14791;52.392;13.092;2023-06-22T01:06:10;5.00;;;4.90;;
27303;SDS011;14791;52.392;13.092;2023-06-22T01:09:06;5.75;;;5.60;;
27303;SDS011;14791;52.392;13.092;2023-06-22T01:11:49;5.85;;;5.55;;
27303;SDS011;14791;52.392;13.092;2023-06-22T01:14:20;5.70;;;5.50;;
27303;SDS011;14791;52.392;13.092;2023-06-22T01:16:50;5.85;;;5.58;;
27303;SDS011;14791;52.392;13.092;2023-06-22T01:22:08;5.15;;;5.05;;
27303;SDS011;14791;52.392;13.092;2023-06-22T01:30:09;5.90;;;5.72;;
27303;SDS011;14791;52.392;13.092;2023-06-22T01:32:41;6.22;;;5.92;;
27303;SDS011;14791;52.392;13.092;2023-06-22T01:35:11;5.92;;;5.70;;
27303;SDS011;14791;52.392;13.092;2023-06-22T01:37:43;5.47;;;5.28;;
27303;SDS011;14791;52.392;13.092;2023-06-22T01:40:13;6.25;;;5.95;;
27303;SDS011;14791;52.392;13.092;2023-06-22T01:42:43;5.85;;;5.72;;
27303;SDS011;14791;52.392;13.092;2023-06-22T01:45:13;5.55;;;5.35;;
27303;SDS011;14791;52.392;13.092;2023-06-22T01:47:42;5.67;;;5.47;;
27303;SDS011;14791;52.392;13.092;2023-06-22T01:50:12;5.50;;;5.35;;
27303;SDS011;14791;52.392;13.092;2023-06-22T01:52:41;5.75;;;5.47;;
27303;SDS011;14791;52.392;13.092;2023-06-22T01:55:10;5.08;;;4.97;;
27303;SDS011;14791;52.392;13.092;2023-06-22T01:57:40;5.03;;;4.90;;
27303;SDS011;14791;52.392;13.092;2023-06-22T02:00:13;5.17;;;5.08;;
27303;SDS011;14791;52.392;13.092;2023-06-22T02:02:59;5.37;;;5.28;;
27303;SDS011;14791;52.392;13.092;2023-06-22T02:05:31;5.97;;;5.78;;
27303;SDS011;14791;52.392;13.092;2023-06-22T02:08:18;5.33;;;5.12;;
27303;SDS011;14791;52.392;13.092;2023-06-22T02:10:49;5.78;;;5.58;;
27303;SDS011;14791;52.392;13.092;2023-06-22T02:13:20;5.67;;;5.47;;
27303;SDS011;14791;52.392;13.092;2023-06-22T02:15:49;5.47;;;5.30;;
27303;SDS011;14791;52.392;13.092;2023-06-22T02:18:19;5.53;;;5.42;;
27303;SDS011;14791;52.392;13.092;2023-06-22T02:20:48;6.00;;;5.80;;
27303;SDS011;14791;52.392;13.092;2023-06-22T02:23:17;5.45;;;5.35;;
27303;SDS011;14791;52.392;13.092;2023-06-22T02:25:45;5.60;;;5.40;;
27303;SDS011;14791;52.392;13.092;2023-06-22T02:28:14;5.90;;;5.70;;
27303;SDS011;14791;52.392;13.092;2023-06-22T02:30:44;6.45;;;6.15;;
27303;SDS011;14791;52.392;13.092;2023-06-22T02:33:13;6.30;;;6.10;;
27303;SDS011;14791;52.392;13.092;2023-06-22T02:35:42;5.40;;;5.30;;
27303;SDS011;14791;52.392;13.092;2023-06-22T02:38:14;5.70;;;5.45;;
27303;SDS011;14791;52.392;13.092;2023-06-22T02:40:44;5.47;;;5.28;;
27303;SDS011;14791;52.392;13.092;2023-06-22T02:43:14;5.42;;;5.28;;
27303;SDS011;14791;52.392;13.092;2023-06-22T02:45:43;6.25;;;5.83;;
27303;SDS011;14791;52.392;13.092;2023-06-22T02:48:12;5.70;;;5.50;;
27303;SDS011;14791;52.392;13.092;2023-06-22T02:50:41;6.17;;;5.90;;
27303;SDS011;14791;52.392;13.092;2023-06-22T02:53:10;5.08;;;4.92;;
27303;SDS011;14791;52.392;13.092;2023-06-22T02:55:41;6.40;;;6.08;;
27303;SDS011;14791;52.392;13.092;2023-06-22T02:58:10;6.65;;;6.35;;
27303;SDS011;14791;52.392;13.092;2023-06-22T03:00:39;6.53;;;6.25;;
27303;SDS011;14791;52.392;13.092;2023-06-22T03:03:08;6.08;;;5.87;;
27303;SDS011;14791;52.392;13.092;2023-06-22T03:05:37;6.17;;;5.97;;
27303;SDS011;14791;52.392;13.092;2023-06-22T03:08:07;6.05;;;5.85;;
27303;SDS011;14791;52.392;13.092;2023-06-22T03:10:36;6.03;;;5.83;;
27303;SDS011;14791;52.392;13.092;2023-06-22T03:13:05;6.75;;;6.50;;
27303;SDS011;14791;52.392;13.092;2023-06-22T03:15:34;5.70;;;5.55;;
27303;SDS011;14791;52.392;13.092;2023-06-22T03:18:03;6.35;;;6.12;;
27303;SDS011;14791;52.392;13.092;2023-06-22T03:20:32;6.67;;;6.37;;
27303;SDS011;14791;52.392;13.092;2023-06-22T03:23:01;6.37;;;6.17;;
27303;SDS011;14791;52.392;13.092;2023-06-22T03:25:30;5.78;;;5.58;;
27303;SDS011;14791;52.392;13.092;2023-06-22T03:28:01;6.67;;;6.47;;
27303;SDS011;14791;52.392;13.092;2023-06-22T03:30:30;6.78;;;6.37;;
27303;SDS011;14791;52.392;13.092;2023-06-22T03:33:00;6.80;;;6.53;;
27303;SDS011;14791;52.392;13.092;2023-06-22T03:35:29;6.45;;;6.15;;
27303;SDS011;14791;52.392;13.092;2023-06-22T03:37:58;6.53;;;6.28;;
27303;SDS011;14791;52.392;13.092;2023-06-22T03:40:27;6.60;;;6.40;;
27303;SDS011;14791;52.392;13.092;2023-06-22T03:42:56;7.05;;;6.85;;
27303;SDS011;14791;52.392;13.092;2023-06-22T03:45:25;7.42;;;7.22;;
27303;SDS011;14791;52.392;13.092;2023-06-22T03:47:54;6.60;;;6.40;;
27303;SDS011;14791;52.392;13.092;2023-06-22T03:50:23;6.42;;;6.22;;
27303;SDS011;14791;52.392;13.092;2023-06-22T03:52:52;8.10;;;7.70;;
27303;SDS011;14791;52.392;13.092;2023-06-22T03:55:21;7.47;;;7.17;;
27303;SDS011;14791;52.392;13.092;2023-06-22T03:57:50;6.87;;;6.58;;
27303;SDS011;14791;52.392;13.092;2023-06-22T04:00:20;7.37;;;7.10;;
27303;SDS011;14791;52.392;13.092;2023-06-22T04:02:49;6.78;;;6.58;;
27303;SDS011;14791;52.392;13.092;2023-06-22T04:05:18;7.42;;;7.15;;
27303;SDS011;14791;52.392;13.092;2023-06-22T04:07:47;7.42;;;7.03;;
27303;SDS011;14791;52.392;13.092;2023-06-22T04:10:16;7.42;;;7.12;;
27303;SDS011;14791;52.392;13.092;2023-06-22T04:12:44;8.13;;;7.78;;
27303;SDS011;14791;52.392;13.092;2023-06-22T04:15:13;7.83;;;7.50;;
27303;SDS011;14791;52.392;13.092;2023-06-22T04:17:42;7.58;;;7.17;;
27303;SDS011;14791;52.392;13.092;2023-06-22T04:20:11;7.83;;;7.47;;
27303;SDS011;14791;52.392;13.092;2023-06-22T04:22:40;7.92;;;7.50;;
27303;SDS011;14791;52.392;13.092;2023-06-22T04:25:09;7.25;;;7.03;;
27303;SDS011;14791;52.392;13.092;2023-06-22T04:27:38;6.85;;;6.65;;
27303;SDS011;14791;52.392;13.092;2023-06-22T04:30:07;7.05;;;6.83;;
27303;SDS011;14791;52.392;13.092;2023-06-22T04:32:37;6.97;;;6.78;;
27303;SDS011;14791;52.392;13.092;2023-06-22T04:35:08;6.58;;;6.35;;
27303;SDS011;14791;52.392;13.092;2023-06-22T04:37:37;7.30;;;7.00;;
27303;SDS011;14791;52.392;13.092;2023-06-22T04:40:06;7.37;;;7.08;;
27303;SDS011;14791;52.392;13.092;2023-06-22T04:42:37;6.80;;;6.60;;
27303;SDS011;14791;52.392;13.092;2023-06-22T04:45:06;6.65;;;6.40;;
27303;SDS011;14791;52.392;13.092;2023-06-22T04:47:37;6.78;;;6.58;;
27303;SDS011;14791;52.392;13.092;2023-06-22T04:50:06;6.97;;;6.70;;
27303;SDS011;14791;52.392;13.092;2023-06-22T04:52:35;6.95;;;6.75;;
27303;SDS011;14791;52.392;13.092;2023-06-22T04:55:05;6.58;;;6.37;;
27303;SDS011;14791;52.392;13.092;2023-06-22T04:57:35;6.20;;;6.00;;
27303;SDS011;14791;52.392;13.092;2023-06-22T05:00:06;5.95;;;5.65;;
27303;SDS011;14791;52.392;13.092;2023-06-22T05:02:39;6.03;;;5.87;;
27303;SDS011;14791;52.392;13.092;2023-06-22T05:05:09;5.87;;;5.67;;
27303;SDS011;14791;52.392;13.092;2023-06-22T05:07:43;6.42;;;6.22;;
27303;SDS011;14791;52.392;13.092;2023-06-22T05:10:15;6.60;;;6.35;;
27303;SDS011;14791;52.392;13.092;2023-06-22T05:12:45;5.83;;;5.62;;
27303;SDS011;14791;52.392;13.092;2023-06-22T05:15:14;6.25;;;6.05;;
27303;SDS011;14791;52.392;13.092;2023-06-22T05:17:45;6.22;;;6.03;;
27303;SDS011;14791;52.392;13.092;2023-06-22T05:20:14;6.25;;;5.95;;
27303;SDS011;14791;52.392;13.092;2023-06-22T05:22:45;6.62;;;6.22;;
27303;SDS011;14791;52.392;13.092;2023-06-22T05:25:13;5.60;;;5.40;;
27303;SDS011;14791;52.392;13.092;2023-06-22T05:27:42;5.17;;;5.05;;
27303;SDS011;14791;52.392;13.092;2023-06-22T05:30:11;5.33;;;5.15;;
27303;SDS011;14791;52.392;13.092;2023-06-22T05:32:40;5.80;;;5.60;;
27303;SDS011;14791;52.392;13.092;2023-06-22T05:35:11;4.67;;;4.55;;
27303;SDS011;14791;52.392;13.092;2023-06-22T05:37:40;4.87;;;4.67;;
27303;SDS011;14791;52.392;13.092;2023-06-22T05:40:09;4.87;;;4.67;;
27303;SDS011;14791;52.392;13.092;2023-06-22T05:42:39;5.03;;;4.85;;
27303;SDS011;14791;52.392;13.092;2023-06-22T05:45:08;4.53;;;4.42;;
27303;SDS011;14791;52.392;13.092;2023-06-22T05:47:37;4.70;;;4.50;;
27303;SDS011;14791;52.392;13.092;2023-06-22T05:50:07;4.40;;;4.20;;
27303;SDS011;14791;52.392;13.092;2023-06-22T05:52:36;4.08;;;3.98;;
27303;SDS011;14791;52.392;13.092;2023-06-22T05:55:05;4.65;;;4.45;;
27303;SDS011;14791;52.392;13.092;2023-06-22T05:57:34;4.47;;;4.28;;
27303;SDS011;14791;52.392;13.092;2023-06-22T06:00:04;4.42;;;4.33;;
27303;SDS011;14791;52.392;13.092;2023-06-22T06:02:35;4.72;;;4.53;;
27303;SDS011;14791;52.392;13.092;2023-06-22T06:05:06;4.20;;;4.10;;
27303;SDS011;14791;52.392;13.092;2023-06-22T06:07:35;3.83;;;3.72;;
27303;SDS011;14791;52.392;13.092;2023-06-22T06:10:04;4.33;;;4.12;;
27303;SDS011;14791;52.392;13.092;2023-06-22T06:12:34;4.37;;;4.28;;
27303;SDS011;14791;52.392;13.092;2023-06-22T06:15:03;3.90;;;3.80;;
27303;SDS011;14791;52.392;13.092;2023-06-22T06:17:33;3.72;;;3.60;;
27303;SDS011;14791;52.392;13.092;2023-06-22T06:20:02;3.87;;;3.77;;
27303;SDS011;14791;52.392;13.092;2023-06-22T06:22:32;4.22;;;4.12;;
27303;SDS011;14791;52.392;13.092;2023-06-22T06:25:01;3.67;;;3.58;;
27303;SDS011;14791;52.392;13.092;2023-06-22T06:27:31;5.62;;;5.17;;
27303;SDS011;14791;52.392;13.092;2023-06-22T06:30:00;4.20;;;4.10;;
27303;SDS011;14791;52.392;13.092;2023-06-22T06:32:30;4.60;;;4.17;;
27303;SDS011;14791;52.392;13.092;2023-06-22T06:34:59;4.45;;;4.15;;
27303;SDS011;14791;52.392;13.092;2023-06-22T06:37:28;4.22;;;4.12;;
27303;SDS011;14791;52.392;13.092;2023-06-22T06:39:56;4.15;;;4.05;;
27303;SDS011;14791;52.392;13.092;2023-06-22T06:42:25;4.50;;;4.17;;
27303;SDS011;14791;52.392;13.092;2023-06-22T06:44:54;3.95;;;3.85;;
27303;SDS011;14791;52.392;13.092;2023-06-22T06:47:23;3.47;;;3.37;;
27303;SDS011;14791;52.392;13.092;2023-06-22T06:49:52;3.40;;;3.30;;
27303;SDS011;14791;52.392;13.092;2023-06-22T06:52:21;3.05;;;2.95;;
27303;SDS011;14791;52.392;13.092;2023-06-22T06:54:50;3.40;;;3.20;;
27303;SDS011;14791;52.392;13.092;2023-06-22T06:57:19;2.90;;;2.80;;
27303;SDS011;14791;52.392;13.092;2023-06-22T07:02:27;3.08;;;2.98;;
27303;SDS011;14791;52.392;13.092;2023-06-22T07:04:56;2.92;;;2.77;;
27303;SDS011;14791;52.392;13.092;2023-06-22T07:07:25;2.70;;;2.60;;
27303;SDS011;14791;52.392;13.092;2023-06-22T07:09:54;2.45;;;2.45;;
27303;SDS011;14791;52.392;13.092;2023-06-22T07:12:23;2.42;;;2.42;;
27303;SDS011;14791;52.392;13.092;2023-06-22T07:14:52;2.52;;;2.45;;
27303;SDS011;14791;52.392;13.092;2023-06-22T07:17:21;2.50;;;2.40;;
27303;SDS011;14791;52.392;13.092;2023-06-22T07:19:50;2.35;;;2.35;;
27303;SDS011;14791;52.392;13.092;2023-06-22T07:22:19;2.55;;;2.45;;
27303;SDS011;14791;52.392;13.092;2023-06-22T07:24:48;2.08;;;2.08;;
27303;SDS011;14791;52.392;13.092;2023-06-22T07:27:16;2.72;;;2.62;;
27303;SDS011;14791;52.392;13.092;2023-06-22T07:29:48;2.30;;;2.20;;
27303;SDS011;14791;52.392;13.092;2023-06-22T07:32:17;2.37;;;2.37;;
27303;SDS011;14791;52.392;13.092;2023-06-22T07:34:45;2.70;;;2.60;;
27303;SDS011;14791;52.392;13.092;2023-06-22T07:37:14;2.00;;;2.00;;
27303;SDS011;14791;52.392;13.092;2023-06-22T07:39:43;3.65;;;2.50;;
27303;SDS011;14791;52.392;13.092;2023-06-22T07:42:12;2.80;;;2.60;;
27303;SDS011;14791;52.392;13.092;2023-06-22T07:44:44;2.30;;;2.22;;
27303;SDS011;14791;52.392;13.092;2023-06-22T07:47:12;2.42;;;2.33;;
27303;SDS011;14791;52.392;13.092;2023-06-22T07:49:41;3.02;;;2.92;;
27303;SDS011;14791;52.392;13.092;2023-06-22T07:52:10;2.62;;;2.52;;
27303;SDS011;14791;52.392;13.092;2023-06-22T07:54:39;2.45;;;2.35;;
27303;SDS011;14791;52.392;13.092;2023-06-22T07:57:08;2.40;;;2.40;;
27303;SDS011;14791;52.392;13.092;2023-06-22T07:59:37;3.22;;;2.90;;
27303;SDS011;14791;52.392;13.092;2023-06-22T08:02:06;2.50;;;2.45;;
27303;SDS011;14791;52.392;13.092;2023-06-22T08:04:36;2.55;;;2.52;;
27303;SDS011;14791;52.392;13.092;2023-06-22T08:07:05;2.50;;;2.50;;
27303;SDS011;14791;52.392;13.092;2023-06-22T08:09:34;2.72;;;2.72;;
27303;SDS011;14791;52.392;13.092;2023-06-22T08:12:04;2.72;;;2.62;;
27303;SDS011;14791;52.392;13.092;2023-06-22T08:14:33;2.62;;;2.62;;
27303;SDS011;14791;52.392;13.092;2023-06-22T08:17:05;2.70;;;2.70;;
27303;SDS011;14791;52.392;13.092;2023-06-22T08:19:34;2.47;;;2.47;;
27303;SDS011;14791;52.392;13.092;2023-06-22T08:22:05;2.98;;;2.85;;
27303;SDS011;14791;52.392;13.092;2023-06-22T08:24:34;2.75;;;2.60;;
27303;SDS011;14791;52.392;13.092;2023-06-22T08:27:03;2.77;;;2.67;;
27303;SDS011;14791;52.392;13.092;2023-06-22T08:29:35;2.33;;;2.33;;
27303;SDS011;14791;52.392;13.092;2023-06-22T08:32:04;2.95;;;2.85;;
27303;SDS011;14791;52.392;13.092;2023-06-22T08:34:33;2.42;;;2.42;;
27303;SDS011;14791;52.392;13.092;2023-06-22T08:37:02;3.42;;;2.50;;
27303;SDS011;14791;52.392;13.092;2023-06-22T08:39:33;2.90;;;2.80;;
27303;SDS011;14791;52.392;13.092;2023-06-22T08:42:02;2.95;;;2.60;;
27303;SDS011;14791;52.392;13.092;2023-06-22T08:44:31;2.60;;;2.50;;
27303;SDS011;14791;52.392;13.092;2023-06-22T08:47:00;3.10;;;3.00;;
27303;SDS011;14791;52.392;13.092;2023-06-22T08:49:30;2.50;;;2.50;;
27303;SDS011;14791;52.392;13.092;2023-06-22T08:51:59;2.10;;;2.00;;
27303;SDS011;14791;52.392;13.092;2023-06-22T08:54:28;6.12;;;2.65;;
27303;SDS011;14791;52.392;13.092;2023-06-22T08:56:58;2.58;;;2.47;;
27303;SDS011;14791;52.392;13.092;2023-06-22T08:59:27;2.12;;;2.12;;
27303;SDS011;14791;52.392;13.092;2023-06-22T09:01:56;2.37;;;2.27;;
27303;SDS011;14791;52.392;13.092;2023-06-22T09:04:25;2.35;;;2.25;;
27303;SDS011;14791;52.392;13.092;2023-06-22T09:06:54;1.90;;;1.90;;
27303;SDS011;14791;52.392;13.092;2023-06-22T09:09:23;3.08;;;2.08;;
27303;SDS011;14791;52.392;13.092;2023-06-22T09:11:52;2.22;;;2.22;;
27303;SDS011;14791;52.392;13.092;2023-06-22T09:14:21;1.98;;;1.82;;
27303;SDS011;14791;52.392;13.092;2023-06-22T09:16:50;2.50;;;2.40;;
27303;SDS011;14791;52.392;13.092;2023-06-22T09:19:19;1.75;;;1.75;;
27303;SDS011;14791;52.392;13.092;2023-06-22T09:21:48;1.90;;;1.90;;
27303;SDS011;14791;52.392;13.092;2023-06-22T09:24:17;2.10;;;2.10;;
27303;SDS011;14791;52.392;13.092;2023-06-22T09:26:46;2.10;;;2.10;;
27303;SDS011;14791;52.392;13.092;2023-06-22T09:29:15;2.22;;;2.20;;
27303;SDS011;14791;52.392;13.092;2023-06-22T09:31:44;2.20;;;2.10;;
27303;SDS011;14791;52.392;13.092;2023-06-22T09:34:13;2.12;;;2.12;;
27303;SDS011;14791;52.392;13.092;2023-06-22T09:36:42;2.33;;;2.22;;
27303;SDS011;14791;52.392;13.092;2023-06-22T09:39:11;2.42;;;2.33;;
27303;SDS011;14791;52.392;13.092;2023-06-22T09:41:40;2.40;;;2.40;;
27303;SDS011;14791;52.392;13.092;2023-06-22T09:44:09;2.10;;;2.10;;
27303;SDS011;14791;52.392;13.092;2023-06-22T09:46:38;2.33;;;2.22;;
27303;SDS011;14791;52.392;13.092;2023-06-22T09:49:07;2.17;;;2.17;;
27303;SDS011;14791;52.392;13.092;2023-06-22T09:51:36;2.47;;;2.33;;
27303;SDS011;14791;52.392;13.092;2023-06-22T09:54:05;2.40;;;2.40;;
27303;SDS011;14791;52.392;13.092;2023-06-22T09:56:33;2.12;;;2.12;;
27303;SDS011;14791;52.392;13.092;2023-06-22T09:59:04;2.55;;;2.50;;
27303;SDS011;14791;52.392;13.092;2023-06-22T10:01:33;2.60;;;2.50;;
27303;SDS011;14791;52.392;13.092;2023-06-22T10:04:02;2.00;;;2.00;;
27303;SDS011;14791;52.392;13.092;2023-06-22T10:06:31;2.50;;;2.40;;
27303;SDS011;14791;52.392;13.092;2023-06-22T10:09:00;2.80;;;2.70;;
27303;SDS011;14791;52.392;13.092;2023-06-22T10:11:29;2.87;;;2.77;;
27303;SDS011;14791;52.392;13.092;2023-06-22T10:13:58;2.47;;;2.47;;
27303;SDS011;14791;52.392;13.092;2023-06-22T10:16:31;2.58;;;2.50;;
27303;SDS011;14791;52.392;13.092;2023-06-22T10:19:02;3.37;;;3.27;;
27303;SDS011;14791;52.392;13.092;2023-06-22T10:21:31;3.42;;;3.10;;
27303;SDS011;14791;52.392;13.092;2023-06-22T10:24:01;2.70;;;2.70;;
27303;SDS011;14791;52.392;13.092;2023-06-22T10:26:33;2.83;;;2.72;;
27303;SDS011;14791;52.392;13.092;2023-06-22T10:29:02;2.30;;;2.30;;
27303;SDS011;14791;52.392;13.092;2023-06-22T10:31:31;2.37;;;2.37;;
27303;SDS011;14791;52.392;13.092;2023-06-22T10:34:00;2.62;;;2.62;;
27303;SDS011;14791;52.392;13.092;2023-06-22T10:36:29;2.50;;;2.50;;
27303;SDS011;14791;52.392;13.092;2023-06-22T10:38:58;2.60;;;2.50;;
27303;SDS011;14791;52.392;13.092;2023-06-22T10:41:28;2.60;;;2.50;;
27303;SDS011;14791;52.392;13.092;2023-06-22T10:43:58;2.77;;;2.67;;
27303;SDS011;14791;52.392;13.092;2023-06-22T10:46:26;2.67;;;2.58;;
27303;SDS011;14791;52.392;13.092;2023-06-22T10:48:55;2.80;;;2.80;;
27303;SDS011;14791;52.392;13.092;2023-06-22T10:51:25;2.90;;;2.80;;
27303;SDS011;14791;52.392;13.092;2023-06-22T10:53:55;2.90;;;2.80;;
27303;SDS011;14791;52.392;13.092;2023-06-22T10:56:24;3.02;;;2.83;;
27303;SDS011;14791;52.392;13.092;2023-06-22T10:58:53;2.67;;;2.58;;
27303;SDS011;14791;52.392;13.092;2023-06-22T11:01:21;3.10;;;3.00;;
27303;SDS011;14791;52.392;13.092;2023-06-22T11:03:50;2.25;;;2.25;;
27303;SDS011;14791;52.392;13.092;2023-06-22T11:06:19;2.75;;;2.75;;
27303;SDS011;14791;52.392;13.092;2023-06-22T11:08:48;2.75;;;2.72;;
27303;SDS011;14791;52.392;13.092;2023-06-22T11:11:17;2.40;;;2.35;;
27303;SDS011;14791;52.392;13.092;2023-06-22T11:13:46;2.85;;;2.85;;
27303;SDS011;14791;52.392;13.092;2023-06-22T11:16:15;3.22;;;3.17;;
27303;SDS011;14791;52.392;13.092;2023-06-22T11:18:44;2.75;;;2.65;;
27303;SDS011;14791;52.392;13.092;2023-06-22T11:21:13;2.75;;;2.65;;
27303;SDS011;14791;52.392;13.092;2023-06-22T11:23:42;2.58;;;2.58;;
27303;SDS011;14791;52.392;13.092;2023-06-22T11:26:11;2.40;;;2.40;;
27303;SDS011;14791;52.392;13.092;2023-06-22T11:28:40;3.02;;;2.98;;
27303;SDS011;14791;52.392;13.092;2023-06-22T11:31:09;2.35;;;2.35;;
27303;SDS011;14791;52.392;13.092;2023-06-22T11:33:38;2.47;;;2.47;;
27303;SDS011;14791;52.392;13.092;2023-06-22T11:36:07;2.37;;;2.37;;
27303;SDS011;14791;52.392;13.092;2023-06-22T11:38:36;2.55;;;2.45;;
27303;SDS011;14791;52.392;13.092;2023-06-22T11:41:06;2.80;;;2.70;;
27303;SDS011;14791;52.392;13.092;2023-06-22T11:43:36;3.00;;;2.90;;
27303;SDS011;14791;52.392;13.092;2023-06-22T11:46:05;2.85;;;2.75;;
27303;SDS011;14791;52.392;13.092;2023-06-22T11:48:34;2.70;;;2.60;;
27303;SDS011;14791;52.392;13.092;2023-06-22T11:51:03;2.98;;;2.75;;
27303;SDS011;14791;52.392;13.092;2023-06-22T11:53:33;2.90;;;2.83;;
27303;SDS011;14791;52.392;13.092;2023-06-22T11:56:03;2.83;;;2.80;;
27303;SDS011;14791;52.392;13.092;2023-06-22T11:58:32;2.87;;;2.83;;
27303;SDS011;14791;52.392;13.092;2023-06-22T12:01:00;2.80;;;2.70;;
27303;SDS011;14791;52.392;13.092;2023-06-22T12:03:30;2.70;;;2.70;;
27303;SDS011;14791;52.392;13.092;2023-06-22T12:05:59;3.05;;;2.95;;
27303;SDS011;14791;52.392;13.092;2023-06-22T12:08:28;2.72;;;2.70;;
27303;SDS011;14791;52.392;13.092;2023-06-22T12:10:57;2.77;;;2.77;;
27303;SDS011;14791;52.392;13.092;2023-06-22T12:13:26;2.83;;;2.83;;
27303;SDS011;14791;52.392;13.092;2023-06-22T12:15:55;2.60;;;2.60;;
27303;SDS011;14791;52.392;13.092;2023-06-22T12:18:24;2.67;;;2.60;;
27303;SDS011;14791;52.392;13.092;2023-06-22T12:20:52;2.60;;;2.60;;
27303;SDS011;14791;52.392;13.092;2023-06-22T12:23:21;3.27;;;3.17;;
27303;SDS011;14791;52.392;13.092;2023-06-22T12:25:50;2.90;;;2.90;;
27303;SDS011;14791;52.392;13.092;2023-06-22T12:28:19;3.20;;;3.10;;
27303;SDS011;14791;52.392;13.092;2023-06-22T12:30:48;3.27;;;3.17;;
27303;SDS011;14791;52.392;13.092;2023-06-22T12:33:17;2.85;;;2.85;;
27303;SDS011;14791;52.392;13.092;2023-06-22T12:35:46;2.87;;;2.87;;
27303;SDS011;14791;52.392;13.092;2023-06-22T12:38:16;3.17;;;3.10;;
27303;SDS011;14791;52.392;13.092;2023-06-22T12:40:45;2.87;;;2.85;;
27303;SDS011;14791;52.392;13.092;2023-06-22T12:43:16;3.02;;;3.02;;
27303;SDS011;14791;52.392;13.092;2023-06-22T12:45:46;3.15;;;3.05;;
27303;SDS011;14791;52.392;13.092;2023-06-22T12:48:14;3.17;;;3.12;;
27303;SDS011;14791;52.392;13.092;2023-06-22T12:50:44;3.12;;;3.12;;
27303;SDS011;14791;52.392;13.092;2023-06-22T12:53:14;3.25;;;3.25;;
27303;SDS011;14791;52.392;13.092;2023-06-22T12:55:43;2.95;;;2.95;;
27303;SDS011;14791;52.392;13.092;2023-06-22T12:58:13;3.50;;;3.40;;
27303;SDS011;14791;52.392;13.092;2023-06-22T13:00:42;2.92;;;2.92;;
27303;SDS011;14791;52.392;13.092;2023-06-22T13:03:10;3.20;;;3.12;;
27303;SDS011;14791;52.392;13.092;2023-06-22T13:05:39;3.30;;;3.17;;
27303;SDS011;14791;52.392;13.092;2023-06-22T13:08:08;3.30;;;3.20;;
27303;SDS011;14791;52.392;13.092;2023-06-22T13:10:38;3.05;;;3.05;;
27303;SDS011;14791;52.392;13.092;2023-06-22T13:13:06;3.50;;;3.40;;
27303;SDS011;14791;52.392;13.092;2023-06-22T13:15:35;3.17;;;3.17;;
27303;SDS011;14791;52.392;13.092;2023-06-22T13:18:04;3.08;;;2.98;;
27303;SDS011;14791;52.392;13.092;2023-06-22T13:20:33;3.05;;;3.05;;
27303;SDS011;14791;52.392;13.092;2023-06-22T13:23:02;3.45;;;3.35;;
27303;SDS011;14791;52.392;13.092;2023-06-22T13:25:31;3.60;;;3.47;;
27303;SDS011;14791;52.392;13.092;2023-06-22T13:28:00;2.85;;;2.75;;
27303;SDS011;14791;52.392;13.092;2023-06-22T13:30:29;2.77;;;2.77;;
27303;SDS011;14791;52.392;13.092;2023-06-22T13:32:59;2.67;;;2.67;;
27303;SDS011;14791;52.392;13.092;2023-06-22T13:35:28;3.27;;;3.25;;
27303;SDS011;14791;52.392;13.092;2023-06-22T13:37:57;3.02;;;3.00;;
27303;SDS011;14791;52.392;13.092;2023-06-22T13:40:26;3.05;;;3.05;;
27303;SDS011;14791;52.392;13.092;2023-06-22T13:42:55;2.98;;;2.98;;
27303;SDS011;14791;52.392;13.092;2023-06-22T13:45:24;3.33;;;3.17;;
27303;SDS011;14791;52.392;13.092;2023-06-22T13:47:53;3.72;;;3.62;;
27303;SDS011;14791;52.392;13.092;2023-06-22T13:50:22;3.05;;;3.05;;
27303;SDS011;14791;52.392;13.092;2023-06-22T13:52:51;3.40;;;3.30;;
27303;SDS011;14791;52.392;13.092;2023-06-22T13:55:20;2.83;;;2.83;;
27303;SDS011;14791;52.392;13.092;2023-06-22T13:57:50;3.72;;;3.37;;
27303;SDS011;14791;52.392;13.092;2023-06-22T14:00:19;3.20;;;3.20;;
27303;SDS011;14791;52.392;13.092;2023-06-22T14:02:48;3.00;;;2.95;;
27303;SDS011;14791;52.392;13.092;2023-06-22T14:05:18;3.25;;;3.22;;
27303;SDS011;14791;52.392;13.092;2023-06-22T14:07:47;2.67;;;2.67;;
27303;SDS011;14791;52.392;13.092;2023-06-22T14:10:16;3.05;;;2.95;;
27303;SDS011;14791;52.392;13.092;2023-06-22T14:12:45;3.10;;;3.10;;
27303;SDS011;14791;52.392;13.092;2023-06-22T14:15:14;3.50;;;3.40;;
27303;SDS011;14791;52.392;13.092;2023-06-22T14:17:43;3.80;;;3.70;;
27303;SDS011;14791;52.392;13.092;2023-06-22T14:20:12;3.33;;;3.22;;
27303;SDS011;14791;52.392;13.092;2023-06-22T14:22:41;3.17;;;3.17;;
27303;SDS011;14791;52.392;13.092;2023-06-22T14:25:09;3.10;;;3.10;;
27303;SDS011;14791;52.392;13.092;2023-06-22T14:27:38;3.47;;;3.47;;
27303;SDS011;14791;52.392;13.092;2023-06-22T14:30:07;3.02;;;3.02;;
27303;SDS011;14791;52.392;13.092;2023-06-22T14:32:37;3.35;;;3.35;;
27303;SDS011;14791;52.392;13.092;2023-06-22T14:35:06;3.50;;;3.40;;
27303;SDS011;14791;52.392;13.092;2023-06-22T14:37:35;3.90;;;3.80;;
27303;SDS011;14791;52.392;13.092;2023-06-22T14:40:04;3.80;;;3.70;;
27303;SDS011;14791;52.392;13.092;2023-06-22T14:42:33;3.72;;;3.62;;
27303;SDS011;14791;52.392;13.092;2023-06-22T14:45:02;3.70;;;3.60;;
27303;SDS011;14791;52.392;13.092;2023-06-22T14:47:32;3.10;;;3.05;;
27303;SDS011;14791;52.392;13.092;2023-06-22T14:50:01;3.52;;;3.42;;
27303;SDS011;14791;52.392;13.092;2023-06-22T14:52:30;3.00;;;3.00;;
27303;SDS011;14791;52.392;13.092;2023-06-22T14:54:59;2.92;;;2.92;;
27303;SDS011;14791;52.392;13.092;2023-06-22T14:57:28;3.08;;;3.08;;